createdAt,value
2022-07-31T00:00:28.509Z,98465.44
2022-07-31T00:02:55.700Z,98460.25
2022-07-31T00:05:26.448Z,98462.50
2022-07-31T00:07:54.343Z,98461.69
2022-07-31T00:10:21.308Z,98472.09
2022-07-31T00:12:48.311Z,98465.59
2022-07-31T00:15:15.597Z,98472.06
2022-07-31T00:17:44.126Z,98466.97
2022-07-31T00:20:17.584Z,98466.72
2022-07-31T00:22:47.478Z,98456.38
2022-07-31T00:25:16.172Z,98449.28
2022-07-31T00:27:43.518Z,98448.16
2022-07-31T00:30:13.169Z,98449.88
2022-07-31T00:32:41.838Z,98457.28
2022-07-31T00:35:10.255Z,98454.31
2022-07-31T00:37:40.541Z,98448.69
2022-07-31T00:40:11.006Z,98450.06
2022-07-31T00:42:38.280Z,98445.81
2022-07-31T00:45:06.412Z,98442.59
2022-07-31T00:47:33.386Z,98448.13
2022-07-31T00:50:00.843Z,98455.00
2022-07-31T00:52:27.920Z,98453.31
2022-07-31T00:54:54.937Z,98451.13
2022-07-31T00:57:22.018Z,98451.13
2022-07-31T00:59:48.966Z,98446.22
2022-07-31T01:02:16.008Z,98451.63
2022-07-31T01:04:44.570Z,98451.03
2022-07-31T01:07:13.109Z,98453.94
2022-07-31T01:09:40.250Z,98446.63
2022-07-31T01:12:22.485Z,98447.38
2022-07-31T01:14:53.945Z,98451.63
2022-07-31T01:17:23.300Z,98449.38
2022-07-31T01:19:52.311Z,98453.69
2022-07-31T01:22:39.598Z,98441.97
2022-07-31T01:25:47.549Z,98445.66
2022-07-31T01:28:56.563Z,98440.72
2022-07-31T01:31:37.073Z,98446.41
2022-07-31T01:34:13.098Z,98446.03
2022-07-31T01:36:49.784Z,98439.03
2022-07-31T01:39:17.941Z,98443.03
2022-07-31T01:41:47.664Z,98446.66
2022-07-31T01:44:18.273Z,98452.19
2022-07-31T01:46:47.852Z,98443.00
2022-07-31T01:49:19.067Z,98434.94
2022-07-31T01:51:49.083Z,98438.94
2022-07-31T01:54:19.121Z,98434.84
2022-07-31T01:56:48.799Z,98438.19
2022-07-31T01:59:20.608Z,98434.84
2022-07-31T02:02:10.200Z,98441.72
2022-07-31T02:04:38.114Z,98444.91
2022-07-31T02:07:08.082Z,98443.75
2022-07-31T02:09:36.115Z,98444.91
2022-07-31T02:12:05.304Z,98448.97
2022-07-31T02:14:37.021Z,98448.09
2022-07-31T02:17:04.522Z,98442.06
2022-07-31T02:19:57.803Z,98444.75
2022-07-31T02:22:29.484Z,98440.34
2022-07-31T02:24:56.630Z,98433.38
2022-07-31T02:27:57.070Z,98433.38
2022-07-31T02:30:16.078Z,98438.91
2022-07-31T02:32:47.041Z,98436.22
2022-07-31T02:35:17.404Z,98438.34
2022-07-31T02:37:45.442Z,98437.75
2022-07-31T02:40:15.850Z,98442.06
2022-07-31T02:42:43.563Z,98444.38
2022-07-31T02:45:11.613Z,98439.53
2022-07-31T02:47:39.048Z,98432.22
2022-07-31T02:50:10.923Z,98428.28
2022-07-31T02:52:38.797Z,98433.63
2022-07-31T02:55:06.478Z,98432.03
2022-07-31T02:57:33.676Z,98432.63
2022-07-31T03:00:00.788Z,98434.06
2022-07-31T03:02:36.819Z,98433.38
2022-07-31T03:05:07.273Z,98437.78
2022-07-31T03:07:35.017Z,98437.56
2022-07-31T03:10:02.147Z,98437.72
2022-07-31T03:12:46.342Z,98441.16
2022-07-31T03:15:17.658Z,98439.66
2022-07-31T03:17:46.628Z,98441.13
2022-07-31T03:20:19.113Z,98441.63
2022-07-31T03:22:46.579Z,98443.25
2022-07-31T03:25:21.923Z,98442.44
2022-07-31T03:27:56.719Z,98433.06
2022-07-31T03:30:25.310Z,98432.34
2022-07-31T03:32:56.599Z,98437.13
2022-07-31T03:35:24.961Z,98439.00
2022-07-31T03:37:52.135Z,98426.81
2022-07-31T03:40:19.340Z,98436.28
2022-07-31T03:42:51.025Z,98437.53
2022-07-31T03:45:20.721Z,98445.00
2022-07-31T03:47:47.925Z,98442.06
2022-07-31T03:50:15.707Z,98439.16
2022-07-31T03:52:47.465Z,98441.34
2022-07-31T03:55:14.683Z,98440.94
2022-07-31T03:57:42.582Z,98451.47
2022-07-31T04:00:16.745Z,98453.69
2022-07-31T04:02:45.514Z,98454.75
2022-07-31T04:05:42.793Z,98458.28
2022-07-31T04:08:10.537Z,98450.47
2022-07-31T04:10:38.143Z,98442.63
2022-07-31T04:13:07.337Z,98446.63
2022-07-31T04:15:34.437Z,98450.13
2022-07-31T04:18:01.577Z,98457.47
2022-07-31T04:20:34.944Z,98450.59
2022-07-31T04:23:03.929Z,98456.22
2022-07-31T04:25:53.052Z,98453.59
2022-07-31T04:28:33.720Z,98451.50
2022-07-31T04:31:00.712Z,98451.88
2022-07-31T04:33:28.873Z,98446.34
2022-07-31T04:35:55.865Z,98441.47
2022-07-31T04:38:22.932Z,98449.75
2022-07-31T04:40:50.415Z,98453.53
2022-07-31T04:43:17.616Z,98449.41
2022-07-31T04:45:44.731Z,98461.59
2022-07-31T04:48:11.877Z,98458.66
2022-07-31T04:50:39.274Z,98463.00
2022-07-31T04:53:06.242Z,98465.00
2022-07-31T04:55:37.299Z,98466.19
2022-07-31T04:58:04.266Z,98467.09
2022-07-31T05:00:31.297Z,98469.50
2022-07-31T05:02:58.985Z,98470.81
2022-07-31T05:05:26.103Z,98463.97
2022-07-31T05:07:53.244Z,98461.47
2022-07-31T05:10:42.958Z,98464.41
2022-07-31T05:13:10.485Z,98463.59
2022-07-31T05:15:38.028Z,98470.56
2022-07-31T05:18:07.591Z,98471.03
2022-07-31T05:20:43.606Z,98465.59
2022-07-31T05:23:31.829Z,98461.00
2022-07-31T05:26:15.287Z,98457.59
2022-07-31T05:28:42.950Z,98457.78
2022-07-31T05:31:10.825Z,98449.41
2022-07-31T05:33:38.281Z,98453.47
2022-07-31T05:36:05.980Z,98445.13
2022-07-31T05:38:33.030Z,98455.09
2022-07-31T05:41:30.798Z,98452.69
2022-07-31T05:44:16.639Z,98450.00
2022-07-31T05:46:46.245Z,98451.41
2022-07-31T05:49:13.538Z,98455.22
2022-07-31T05:51:44.425Z,98457.28
2022-07-31T05:54:12.305Z,98454.22
2022-07-31T05:56:58.066Z,98461.41
2022-07-31T05:59:32.839Z,98454.75
2022-07-31T06:01:59.931Z,98466.97
2022-07-31T06:04:27.352Z,98465.34
2022-07-31T06:06:54.507Z,98466.03
2022-07-31T06:09:21.961Z,98469.84
2022-07-31T06:11:50.916Z,98469.50
2022-07-31T06:14:17.902Z,98471.22
2022-07-31T06:17:07.661Z,98466.44
2022-07-31T06:19:36.854Z,98468.25
2022-07-31T06:22:04.352Z,98469.66
2022-07-31T06:24:35.090Z,98470.03
2022-07-31T06:27:03.735Z,98466.84
2022-07-31T06:29:41.120Z,98468.00
2022-07-31T06:32:09.780Z,98471.28
2022-07-31T06:34:37.678Z,98476.06
2022-07-31T06:37:05.474Z,98469.84
2022-07-31T06:39:55.907Z,98476.34
2022-07-31T06:42:51.736Z,98481.53
2022-07-31T06:45:51.906Z,98485.91
2022-07-31T06:48:45.574Z,98483.22
2022-07-31T06:51:30.254Z,98485.97
2022-07-31T06:53:58.890Z,98492.59
2022-07-31T06:56:26.072Z,98495.13
2022-07-31T06:58:53.313Z,98488.34
2022-07-31T07:01:20.374Z,98492.28
2022-07-31T07:03:47.728Z,98477.69
2022-07-31T07:06:14.866Z,98473.94
2022-07-31T07:08:43.215Z,98480.81
2022-07-31T07:11:13.264Z,98475.03
2022-07-31T07:13:46.131Z,98471.25
2022-07-31T07:16:15.567Z,98470.53
2022-07-31T07:18:43.446Z,98475.91
2022-07-31T07:21:11.065Z,98470.34
2022-07-31T07:23:38.836Z,98455.34
2022-07-31T07:26:20.055Z,98460.56
2022-07-31T07:28:47.200Z,98465.47
2022-07-31T07:31:14.193Z,98463.78
2022-07-31T07:33:42.880Z,98463.19
2022-07-31T07:36:23.341Z,98455.31
2022-07-31T07:38:55.781Z,98464.84
2022-07-31T07:41:25.082Z,98464.03
2022-07-31T07:43:53.199Z,98463.50
2022-07-31T07:46:23.146Z,98462.19
2022-07-31T07:48:54.104Z,98453.56
2022-07-31T07:51:59.272Z,98455.38
2022-07-31T07:54:53.065Z,98458.22
2022-07-31T07:57:23.132Z,98466.00
2022-07-31T08:00:12.431Z,98461.75
2022-07-31T08:03:46.823Z,98460.72
2022-07-31T08:05:43.700Z,98455.63
2022-07-31T08:08:10.873Z,98461.63
2022-07-31T08:10:41.158Z,98460.00
2022-07-31T08:13:15.116Z,98461.38
2022-07-31T08:16:05.602Z,98458.22
2022-07-31T08:18:36.043Z,98459.06
2022-07-31T08:21:03.079Z,98455.50
2022-07-31T08:23:30.334Z,98452.84
2022-07-31T08:25:57.531Z,98460.53
2022-07-31T08:28:26.655Z,98464.88
2022-07-31T08:30:54.123Z,98464.13
2022-07-31T08:33:22.806Z,98455.56
2022-07-31T08:35:54.874Z,98456.56
2022-07-31T08:38:22.088Z,98463.66
2022-07-31T08:41:21.450Z,98459.88
2022-07-31T08:43:59.932Z,98448.91
2022-07-31T08:46:37.555Z,98447.03
2022-07-31T08:49:06.465Z,98454.75
2022-07-31T08:51:51.143Z,98451.06
2022-07-31T08:54:54.754Z,98440.13
2022-07-31T08:57:24.287Z,98440.78
2022-07-31T08:59:52.641Z,98440.91
2022-07-31T09:02:20.063Z,98430.84
2022-07-31T09:05:10.325Z,98428.22
2022-07-31T09:07:39.854Z,98426.09
2022-07-31T09:10:28.449Z,98434.22
2022-07-31T09:12:57.232Z,98432.97
2022-07-31T09:15:30.753Z,98447.75
2022-07-31T09:18:00.962Z,98432.63
2022-07-31T09:20:29.464Z,98422.31
2022-07-31T09:23:09.052Z,98435.59
2022-07-31T09:25:39.999Z,98426.72
2022-07-31T09:28:08.022Z,98419.34
2022-07-31T09:30:35.667Z,98423.03
2022-07-31T09:33:54.629Z,98415.44
2022-07-31T09:36:36.146Z,98407.25
2022-07-31T09:39:29.492Z,98400.50
2022-07-31T09:42:16.914Z,98416.09
2022-07-31T09:44:59.590Z,98408.91
2022-07-31T09:47:30.529Z,98409.59
2022-07-31T09:50:04.427Z,98407.34
2022-07-31T09:52:32.420Z,98408.38
2022-07-31T09:55:15.033Z,98405.75
2022-07-31T09:57:56.645Z,98401.53
2022-07-31T10:00:27.468Z,98395.69
2022-07-31T10:02:56.829Z,98410.34
2022-07-31T10:05:27.631Z,98397.13
2022-07-31T10:08:00.754Z,98398.91
2022-07-31T10:10:49.110Z,98389.31
2022-07-31T10:13:45.932Z,98391.66
2022-07-31T10:16:14.103Z,98394.44
2022-07-31T10:19:11.905Z,98392.66
2022-07-31T10:21:56.489Z,98385.03
2022-07-31T10:24:32.011Z,98395.84
2022-07-31T10:27:10.842Z,98382.91
2022-07-31T10:29:40.586Z,98368.09
2022-07-31T10:32:08.659Z,98372.97
2022-07-31T10:34:41.043Z,98373.84
2022-07-31T10:37:43.251Z,98363.53
2022-07-31T10:40:49.965Z,98381.84
2022-07-31T10:43:29.875Z,98383.25
2022-07-31T10:46:14.966Z,98382.34
2022-07-31T10:48:53.782Z,98372.34
2022-07-31T10:51:53.513Z,98372.88
2022-07-31T10:54:44.171Z,98372.16
2022-07-31T10:57:55.971Z,98364.94
2022-07-31T11:00:42.290Z,98358.72
2022-07-31T11:03:23.317Z,98354.88
2022-07-31T11:06:08.789Z,98361.00
2022-07-31T11:08:55.729Z,98347.50
2022-07-31T11:11:41.526Z,98346.13
2022-07-31T11:14:40.402Z,98343.38
2022-07-31T11:18:23.477Z,98336.53
2022-07-31T11:20:32.689Z,98328.78
2022-07-31T11:23:08.481Z,98328.91
2022-07-31T11:25:37.672Z,98332.72
2022-07-31T11:28:23.599Z,98318.59
2022-07-31T11:30:59.181Z,98330.47
2022-07-31T11:33:42.144Z,98325.31
2022-07-31T11:36:17.907Z,98301.63
2022-07-31T11:38:50.451Z,98304.03
2022-07-31T11:41:22.233Z,98305.41
2022-07-31T11:43:52.178Z,98309.16
2022-07-31T11:46:31.951Z,98294.00
2022-07-31T11:49:00.231Z,98289.22
2022-07-31T11:51:30.929Z,98283.78
2022-07-31T11:53:58.036Z,98279.00
2022-07-31T11:56:27.849Z,98274.25
2022-07-31T11:58:57.743Z,98279.81
2022-07-31T12:01:29.529Z,98285.13
2022-07-31T12:04:06.255Z,98281.75
2022-07-31T12:06:36.870Z,98271.25
2022-07-31T12:09:04.679Z,98266.94
2022-07-31T12:11:32.053Z,98272.44
2022-07-31T12:13:59.494Z,98273.50
2022-07-31T12:16:26.735Z,98270.78
2022-07-31T12:18:58.589Z,98264.19
2022-07-31T12:21:38.361Z,98269.81
2022-07-31T12:24:15.390Z,98279.25
2022-07-31T12:26:55.561Z,98264.22
2022-07-31T12:29:37.633Z,98261.50
2022-07-31T12:32:08.497Z,98253.75
2022-07-31T12:34:41.728Z,98250.88
2022-07-31T12:37:15.225Z,98243.97
2022-07-31T12:40:00.822Z,98245.53
2022-07-31T12:42:40.770Z,98243.84
2022-07-31T12:45:19.931Z,98232.94
2022-07-31T12:47:51.844Z,98242.03
2022-07-31T12:50:24.747Z,98243.91
2022-07-31T12:52:52.124Z,98242.88
2022-07-31T12:55:19.641Z,98230.19
2022-07-31T12:57:51.535Z,98230.09
2022-07-31T13:00:23.094Z,98232.25
2022-07-31T13:02:52.464Z,98232.56
2022-07-31T13:05:20.116Z,98218.56
2022-07-31T13:07:47.696Z,98216.97
2022-07-31T13:10:21.654Z,98216.84
2022-07-31T13:12:51.884Z,98220.50
2022-07-31T13:15:23.207Z,98222.00
2022-07-31T13:17:51.078Z,98218.34
2022-07-31T13:20:18.999Z,98211.19
2022-07-31T13:22:45.986Z,98206.75
2022-07-31T13:25:13.676Z,98206.41
2022-07-31T13:27:41.827Z,98215.25
2022-07-31T13:30:34.768Z,98187.22
2022-07-31T13:33:01.718Z,98181.00
2022-07-31T13:35:29.506Z,98182.78
2022-07-31T13:37:57.162Z,98182.94
2022-07-31T13:40:43.685Z,98175.72
2022-07-31T13:43:11.119Z,98173.75
2022-07-31T13:45:38.335Z,98168.78
2022-07-31T13:48:09.204Z,98161.28
2022-07-31T13:50:39.483Z,98155.53
2022-07-31T13:53:07.100Z,98163.44
2022-07-31T13:55:34.284Z,98158.69
2022-07-31T13:58:01.768Z,98157.22
2022-07-31T14:00:30.216Z,98150.91
2022-07-31T14:02:57.993Z,98154.81
2022-07-31T14:05:26.690Z,98143.81
2022-07-31T14:07:55.900Z,98153.25
2022-07-31T14:10:23.541Z,98148.31
2022-07-31T14:12:50.903Z,98141.31
2022-07-31T14:15:18.300Z,98148.03
2022-07-31T14:17:45.985Z,98146.88
2022-07-31T14:20:13.650Z,98144.56
2022-07-31T14:22:42.351Z,98147.50
2022-07-31T14:25:13.240Z,98144.63
2022-07-31T14:27:40.527Z,98139.75
2022-07-31T14:30:09.632Z,98139.66
2022-07-31T14:32:37.306Z,98131.41
2022-07-31T14:35:08.369Z,98134.03
2022-07-31T14:37:36.862Z,98126.56
2022-07-31T14:40:07.331Z,98126.56
2022-07-31T14:42:35.324Z,98126.66
2022-07-31T14:45:06.685Z,98130.22
2022-07-31T14:47:34.707Z,98124.66
2022-07-31T14:50:08.882Z,98113.47
2022-07-31T14:52:37.991Z,98127.06
2022-07-31T14:55:05.755Z,98121.84
2022-07-31T14:57:32.884Z,98112.09
2022-07-31T15:00:00.022Z,98113.06
2022-07-31T15:02:27.442Z,98101.31
2022-07-31T15:04:55.370Z,98101.13
2022-07-31T15:07:43.874Z,98109.69
2022-07-31T15:10:11.739Z,98111.16
2022-07-31T15:12:38.836Z,98106.16
2022-07-31T15:15:07.756Z,98109.44
2022-07-31T15:17:34.714Z,98104.50
2022-07-31T15:20:01.771Z,98096.63
2022-07-31T15:22:29.852Z,98100.78
2022-07-31T15:24:57.136Z,98104.34
2022-07-31T15:27:24.867Z,98102.31
2022-07-31T15:30:04.146Z,98107.63
2022-07-31T15:32:33.996Z,98097.63
2022-07-31T15:35:01.163Z,98098.22
2022-07-31T15:37:28.397Z,98096.25
2022-07-31T15:40:01.647Z,98094.75
2022-07-31T15:42:37.665Z,98084.66
2022-07-31T15:45:06.312Z,98080.13
2022-07-31T15:47:33.519Z,98075.81
2022-07-31T15:50:00.945Z,98071.66
2022-07-31T15:52:27.881Z,98077.41
2022-07-31T15:54:55.042Z,98081.16
2022-07-31T15:57:23.019Z,98082.59
2022-07-31T15:59:52.239Z,98083.72
2022-07-31T16:02:19.475Z,98082.94
2022-07-31T16:04:52.821Z,98079.31
2022-07-31T16:08:30.039Z,98065.59
2022-07-31T16:10:16.639Z,98070.88
2022-07-31T16:12:51.658Z,98065.09
2022-07-31T16:15:18.638Z,98057.28
2022-07-31T16:17:47.869Z,98052.47
2022-07-31T16:20:25.327Z,98041.59
2022-07-31T16:23:01.149Z,98044.22
2022-07-31T16:25:31.785Z,98054.81
2022-07-31T16:28:02.537Z,98046.63
2022-07-31T16:30:29.527Z,98042.28
2022-07-31T16:32:56.573Z,98037.56
2022-07-31T16:35:26.166Z,98025.88
2022-07-31T16:37:54.295Z,98030.59
2022-07-31T16:40:29.831Z,98032.00
2022-07-31T16:43:50.541Z,98029.47
2022-07-31T16:45:52.350Z,98035.31
2022-07-31T16:48:19.542Z,98041.69
2022-07-31T16:50:52.912Z,98041.47
2022-07-31T16:54:11.168Z,98036.31
2022-07-31T16:56:16.371Z,98035.28
2022-07-31T16:58:44.145Z,98042.41
2022-07-31T17:01:58.065Z,98047.50
2022-07-31T17:04:03.460Z,98033.31
2022-07-31T17:06:36.941Z,98039.44
2022-07-31T17:09:16.713Z,98032.84
2022-07-31T17:11:47.367Z,98035.53
2022-07-31T17:14:15.750Z,98030.59
2022-07-31T17:16:47.048Z,98039.44
2022-07-31T17:19:14.668Z,98029.66
2022-07-31T17:21:43.819Z,98030.50
2022-07-31T17:24:15.815Z,98031.41
2022-07-31T17:26:44.127Z,98028.66
2022-07-31T17:29:12.405Z,98016.97
2022-07-31T17:31:39.586Z,98028.78
2022-07-31T17:34:09.260Z,98032.06
2022-07-31T17:36:36.641Z,98026.44
2022-07-31T17:39:04.787Z,98041.03
2022-07-31T17:41:32.107Z,98031.25
2022-07-31T17:43:59.143Z,98042.16
2022-07-31T17:46:34.444Z,98048.91
2022-07-31T17:49:05.953Z,98042.00
2022-07-31T17:51:33.371Z,98051.63
2022-07-31T17:54:00.687Z,98047.81
2022-07-31T17:56:28.024Z,98055.88
2022-07-31T17:59:04.436Z,98052.44
2022-07-31T18:01:35.322Z,98053.03
2022-07-31T18:04:03.345Z,98051.44
2022-07-31T18:06:30.989Z,98050.44
2022-07-31T18:08:58.904Z,98054.75
2022-07-31T18:11:26.255Z,98053.94
2022-07-31T18:13:55.334Z,98056.66
2022-07-31T18:16:23.793Z,98054.69
2022-07-31T18:18:54.346Z,98055.97
2022-07-31T18:21:21.663Z,98052.75
2022-07-31T18:23:48.720Z,98056.38
2022-07-31T18:26:16.129Z,98039.78
2022-07-31T18:28:46.215Z,98053.75
2022-07-31T18:31:32.386Z,98046.41
2022-07-31T18:34:00.140Z,98054.66
2022-07-31T18:36:27.458Z,98059.22
2022-07-31T18:38:54.441Z,98061.56
2022-07-31T18:41:21.617Z,98059.09
2022-07-31T18:43:48.778Z,98057.69
2022-07-31T18:46:16.115Z,98048.88
2022-07-31T18:48:43.167Z,98055.56
2022-07-31T18:51:10.263Z,98061.16
2022-07-31T18:53:37.597Z,98063.47
2022-07-31T18:56:05.173Z,98057.50
2022-07-31T18:58:32.392Z,98066.59
2022-07-31T19:00:59.855Z,98063.66
2022-07-31T19:03:27.077Z,98057.34
2022-07-31T19:05:54.475Z,98060.38
2022-07-31T19:08:21.642Z,98063.88
2022-07-31T19:10:49.590Z,98069.38
2022-07-31T19:13:18.661Z,98073.19
2022-07-31T19:15:52.877Z,98069.44
2022-07-31T19:18:28.086Z,98072.97
2022-07-31T19:21:23.579Z,98083.59
2022-07-31T19:23:47.184Z,98081.31
2022-07-31T19:26:14.278Z,98082.38
2022-07-31T19:28:43.201Z,98078.09
2022-07-31T19:31:13.102Z,98071.94
2022-07-31T19:33:40.682Z,98085.66
2022-07-31T19:36:08.130Z,98079.94
2022-07-31T19:38:38.189Z,98084.56
2022-07-31T19:41:05.337Z,98082.06
2022-07-31T19:43:33.410Z,98089.88
2022-07-31T19:46:11.518Z,98093.16
2022-07-31T19:48:45.576Z,98094.63
2022-07-31T19:51:15.502Z,98095.50
2022-07-31T19:53:44.447Z,98085.84
2022-07-31T19:56:18.095Z,98094.38
2022-07-31T19:58:47.898Z,98101.69
2022-07-31T20:01:21.005Z,98105.88
2022-07-31T20:03:56.080Z,98101.06
2022-07-31T20:06:24.166Z,98103.75
2022-07-31T20:08:55.104Z,98105.00
2022-07-31T20:11:25.866Z,98108.81
2022-07-31T20:13:52.927Z,98112.63
2022-07-31T20:16:20.102Z,98111.09
2022-07-31T20:18:48.428Z,98114.47
2022-07-31T20:21:15.820Z,98119.91
2022-07-31T20:23:44.371Z,98121.09
2022-07-31T20:26:17.653Z,98120.00
2022-07-31T20:28:45.192Z,98114.00
2022-07-31T20:31:15.860Z,98121.47
2022-07-31T20:33:56.878Z,98119.91
2022-07-31T20:36:24.347Z,98118.16
2022-07-31T20:38:51.377Z,98117.47
2022-07-31T20:41:18.548Z,98120.22
2022-07-31T20:43:45.884Z,98127.44
2022-07-31T20:46:13.006Z,98133.50
2022-07-31T20:48:40.028Z,98133.84
2022-07-31T20:51:09.100Z,98127.22
2022-07-31T20:53:36.742Z,98135.81
2022-07-31T20:56:03.737Z,98129.78
2022-07-31T20:58:30.651Z,98129.56
2022-07-31T21:00:57.770Z,98138.75
2022-07-31T21:03:25.031Z,98130.97
2022-07-31T21:05:52.070Z,98137.88
2022-07-31T21:08:19.070Z,98138.22
2022-07-31T21:10:46.200Z,98139.63
2022-07-31T21:13:13.471Z,98158.88
2022-07-31T21:15:44.587Z,98142.25
2022-07-31T21:18:17.184Z,98143.28
2022-07-31T21:20:52.375Z,98153.59
2022-07-31T21:23:25.643Z,98145.84
2022-07-31T21:25:55.479Z,98148.63
2022-07-31T21:28:23.979Z,98148.97
2022-07-31T21:30:53.663Z,98148.47
2022-07-31T21:33:21.220Z,98151.56
2022-07-31T21:35:48.550Z,98154.06
2022-07-31T21:38:16.458Z,98153.06
2022-07-31T21:40:45.183Z,98154.41
2022-07-31T21:43:15.438Z,98157.78
2022-07-31T21:45:54.911Z,98155.06
2022-07-31T21:48:25.567Z,98157.97
2022-07-31T21:50:54.147Z,98156.91
2022-07-31T21:53:21.876Z,98170.31
2022-07-31T21:55:51.656Z,98156.56
2022-07-31T21:58:18.821Z,98165.06
2022-07-31T22:00:45.969Z,98160.34
2022-07-31T22:03:13.281Z,98165.31
2022-07-31T22:05:59.005Z,98171.34
2022-07-31T22:08:26.320Z,98165.16
2022-07-31T22:10:53.394Z,98175.69
2022-07-31T22:13:20.863Z,98177.06
2022-07-31T22:15:59.090Z,98178.03
2022-07-31T22:18:32.878Z,98177.19
2022-07-31T22:21:02.040Z,98175.34
2022-07-31T22:23:29.543Z,98173.31
2022-07-31T22:25:57.272Z,98181.03
2022-07-31T22:28:25.524Z,98184.03
2022-07-31T22:30:54.141Z,98181.78
2022-07-31T22:33:21.996Z,98185.16
2022-07-31T22:36:00.252Z,98186.28
2022-07-31T22:38:30.112Z,98191.13
2022-07-31T22:41:01.397Z,98190.59
2022-07-31T22:44:10.794Z,98187.41
2022-07-31T22:46:16.391Z,98193.50
2022-07-31T22:48:45.887Z,98189.38
2022-07-31T22:51:14.846Z,98189.94
2022-07-31T22:53:48.656Z,98195.16
2022-07-31T22:56:17.441Z,98184.50
2022-07-31T22:58:44.380Z,98188.22
2022-07-31T23:01:11.417Z,98187.78
2022-07-31T23:03:38.427Z,98193.91
2022-07-31T23:06:30.843Z,98190.50
2022-07-31T23:08:54.982Z,98197.63
2022-07-31T23:11:23.412Z,98197.16
2022-07-31T23:13:51.535Z,98207.44
2022-07-31T23:16:18.610Z,98202.81
2022-07-31T23:18:45.636Z,98202.00
2022-07-31T23:21:12.666Z,98214.16
2022-07-31T23:23:39.646Z,98212.75
2022-07-31T23:26:06.735Z,98219.91
2022-07-31T23:28:34.232Z,98204.22
2022-07-31T23:31:01.189Z,98218.25
2022-07-31T23:33:28.179Z,98201.88
2022-07-31T23:35:55.386Z,98206.91
2022-07-31T23:38:22.713Z,98204.22
2022-07-31T23:40:49.771Z,98213.41
2022-07-31T23:43:20.887Z,98207.47
2022-07-31T23:45:48.038Z,98206.94
2022-07-31T23:48:15.396Z,98207.25
2022-07-31T23:50:44.283Z,98205.09
2022-07-31T23:53:11.401Z,98209.16
2022-07-31T23:55:42.942Z,98204.84
2022-07-31T23:58:10.503Z,98208.59
